sensor_id;sensor_type;location;lat;lon;timestamp;P1;durP1;ratioP1;P2;durP2;ratioP2
75429;SDS011;64127;51.488;5.462;2024-03-08T00:00:57;26.37;;;20.80;;
75429;SDS011;64127;51.488;5.462;2024-03-08T00:03:29;24.20;;;19.53;;
75429;SDS011;64127;51.488;5.462;2024-03-08T00:06:02;29.33;;;20.93;;
75429;SDS011;64127;51.488;5.462;2024-03-08T00:08:36;25.33;;;19.97;;
75429;SDS011;64127;51.488;5.462;2024-03-08T00:11:08;25.63;;;20.00;;
75429;SDS011;64127;51.488;5.462;2024-03-08T00:13:40;25.03;;;19.70;;
75429;SDS011;64127;51.488;5.462;2024-03-08T00:16:13;23.07;;;19.60;;
75429;SDS011;64127;51.488;5.462;2024-03-08T00:18:45;25.03;;;20.13;;
75429;SDS011;64127;51.488;5.462;2024-03-08T00:21:17;24.87;;;19.97;;
75429;SDS011;64127;51.488;5.462;2024-03-08T00:23:49;24.57;;;20.73;;
75429;SDS011;64127;51.488;5.462;2024-03-08T00:26:22;24.33;;;19.90;;
75429;SDS011;64127;51.488;5.462;2024-03-08T00:28:54;24.97;;;19.97;;
75429;SDS011;64127;51.488;5.462;2024-03-08T00:31:26;25.17;;;20.00;;
75429;SDS011;64127;51.488;5.462;2024-03-08T00:33:59;25.30;;;20.50;;
75429;SDS011;64127;51.488;5.462;2024-03-08T00:36:31;28.17;;;20.13;;
75429;SDS011;64127;51.488;5.462;2024-03-08T00:39:03;24.07;;;20.73;;
75429;SDS011;64127;51.488;5.462;2024-03-08T00:41:38;24.57;;;19.73;;
75429;SDS011;64127;51.488;5.462;2024-03-08T00:44:10;24.80;;;19.37;;
75429;SDS011;64127;51.488;5.462;2024-03-08T00:46:43;24.60;;;20.00;;
75429;SDS011;64127;51.488;5.462;2024-03-08T00:49:15;25.00;;;19.77;;
75429;SDS011;64127;51.488;5.462;2024-03-08T00:51:48;24.00;;;19.40;;
75429;SDS011;64127;51.488;5.462;2024-03-08T00:54:20;23.40;;;19.70;;
75429;SDS011;64127;51.488;5.462;2024-03-08T00:56:52;22.37;;;18.97;;
75429;SDS011;64127;51.488;5.462;2024-03-08T00:59:24;26.93;;;20.17;;
75429;SDS011;64127;51.488;5.462;2024-03-08T01:01:56;25.80;;;19.13;;
75429;SDS011;64127;51.488;5.462;2024-03-08T01:04:30;23.23;;;19.43;;
75429;SDS011;64127;51.488;5.462;2024-03-08T01:07:03;25.07;;;19.23;;
75429;SDS011;64127;51.488;5.462;2024-03-08T01:09:35;25.37;;;19.53;;
75429;SDS011;64127;51.488;5.462;2024-03-08T01:12:07;24.77;;;18.57;;
75429;SDS011;64127;51.488;5.462;2024-03-08T01:14:39;23.53;;;18.87;;
75429;SDS011;64127;51.488;5.462;2024-03-08T01:17:11;24.80;;;19.17;;
75429;SDS011;64127;51.488;5.462;2024-03-08T01:19:44;23.40;;;19.07;;
75429;SDS011;64127;51.488;5.462;2024-03-08T01:22:16;23.57;;;18.57;;
75429;SDS011;64127;51.488;5.462;2024-03-08T01:24:48;23.43;;;19.33;;
75429;SDS011;64127;51.488;5.462;2024-03-08T01:27:21;23.07;;;19.00;;
75429;SDS011;64127;51.488;5.462;2024-03-08T01:29:53;21.57;;;18.47;;
75429;SDS011;64127;51.488;5.462;2024-03-08T01:32:25;23.17;;;18.80;;
75429;SDS011;64127;51.488;5.462;2024-03-08T01:34:57;23.50;;;18.43;;
75429;SDS011;64127;51.488;5.462;2024-03-08T01:37:30;21.77;;;18.57;;
75429;SDS011;64127;51.488;5.462;2024-03-08T01:40:02;21.30;;;17.73;;
75429;SDS011;64127;51.488;5.462;2024-03-08T01:42:34;21.70;;;18.83;;
75429;SDS011;64127;51.488;5.462;2024-03-08T01:45:09;21.93;;;18.87;;
75429;SDS011;64127;51.488;5.462;2024-03-08T01:47:41;20.37;;;17.67;;
75429;SDS011;64127;51.488;5.462;2024-03-08T01:50:14;20.30;;;18.10;;
75429;SDS011;64127;51.488;5.462;2024-03-08T01:52:47;22.10;;;18.40;;
75429;SDS011;64127;51.488;5.462;2024-03-08T01:55:19;21.77;;;18.67;;
75429;SDS011;64127;51.488;5.462;2024-03-08T01:57:52;21.13;;;18.77;;
75429;SDS011;64127;51.488;5.462;2024-03-08T02:00:24;22.30;;;17.93;;
75429;SDS011;64127;51.488;5.462;2024-03-08T02:02:58;21.07;;;18.30;;
75429;SDS011;64127;51.488;5.462;2024-03-08T02:05:30;20.90;;;18.47;;
75429;SDS011;64127;51.488;5.462;2024-03-08T02:08:03;21.33;;;18.43;;
75429;SDS011;64127;51.488;5.462;2024-03-08T02:10:45;22.17;;;17.80;;
75429;SDS011;64127;51.488;5.462;2024-03-08T02:13:17;21.93;;;19.40;;
75429;SDS011;64127;51.488;5.462;2024-03-08T02:18:30;25.53;;;18.70;;
75429;SDS011;64127;51.488;5.462;2024-03-08T02:21:06;20.73;;;18.40;;
75429;SDS011;64127;51.488;5.462;2024-03-08T02:23:40;23.17;;;19.80;;
75429;SDS011;64127;51.488;5.462;2024-03-08T02:26:12;22.27;;;19.20;;
75429;SDS011;64127;51.488;5.462;2024-03-08T02:28:44;22.60;;;18.80;;
75429;SDS011;64127;51.488;5.462;2024-03-08T02:31:17;22.07;;;18.40;;
75429;SDS011;64127;51.488;5.462;2024-03-08T02:33:50;20.87;;;18.53;;
75429;SDS011;64127;51.488;5.462;2024-03-08T02:36:22;21.63;;;18.63;;
75429;SDS011;64127;51.488;5.462;2024-03-08T02:38:55;23.47;;;19.33;;
75429;SDS011;64127;51.488;5.462;2024-03-08T02:41:27;20.60;;;18.20;;
75429;SDS011;64127;51.488;5.462;2024-03-08T02:44:00;22.03;;;18.67;;
75429;SDS011;64127;51.488;5.462;2024-03-08T02:46:32;21.10;;;17.53;;
75429;SDS011;64127;51.488;5.462;2024-03-08T02:49:04;21.50;;;18.63;;
75429;SDS011;64127;51.488;5.462;2024-03-08T02:51:37;20.93;;;18.70;;
75429;SDS011;64127;51.488;5.462;2024-03-08T02:54:10;24.20;;;18.63;;
75429;SDS011;64127;51.488;5.462;2024-03-08T02:56:42;21.90;;;18.60;;
75429;SDS011;64127;51.488;5.462;2024-03-08T02:59:14;20.50;;;18.23;;
75429;SDS011;64127;51.488;5.462;2024-03-08T03:01:48;20.80;;;18.50;;
75429;SDS011;64127;51.488;5.462;2024-03-08T03:04:21;21.60;;;18.90;;
75429;SDS011;64127;51.488;5.462;2024-03-08T03:06:53;21.07;;;18.87;;
75429;SDS011;64127;51.488;5.462;2024-03-08T03:09:26;22.93;;;19.27;;
75429;SDS011;64127;51.488;5.462;2024-03-08T03:11:59;20.67;;;18.47;;
75429;SDS011;64127;51.488;5.462;2024-03-08T03:14:31;22.70;;;18.60;;
75429;SDS011;64127;51.488;5.462;2024-03-08T03:17:05;24.10;;;18.87;;
75429;SDS011;64127;51.488;5.462;2024-03-08T03:19:40;21.73;;;18.43;;
75429;SDS011;64127;51.488;5.462;2024-03-08T03:22:13;20.63;;;18.30;;
75429;SDS011;64127;51.488;5.462;2024-03-08T03:24:47;20.87;;;18.53;;
75429;SDS011;64127;51.488;5.462;2024-03-08T03:27:19;21.43;;;18.67;;
75429;SDS011;64127;51.488;5.462;2024-03-08T03:29:51;20.73;;;18.53;;
75429;SDS011;64127;51.488;5.462;2024-03-08T03:32:23;22.57;;;18.90;;
75429;SDS011;64127;51.488;5.462;2024-03-08T03:34:55;21.03;;;18.83;;
75429;SDS011;64127;51.488;5.462;2024-03-08T03:37:28;20.90;;;18.57;;
75429;SDS011;64127;51.488;5.462;2024-03-08T03:40:00;21.20;;;18.90;;
75429;SDS011;64127;51.488;5.462;2024-03-08T03:42:33;20.63;;;18.40;;
75429;SDS011;64127;51.488;5.462;2024-03-08T03:45:05;21.90;;;18.97;;
75429;SDS011;64127;51.488;5.462;2024-03-08T03:47:38;22.87;;;19.17;;
75429;SDS011;64127;51.488;5.462;2024-03-08T03:50:10;23.60;;;19.30;;
75429;SDS011;64127;51.488;5.462;2024-03-08T03:52:42;20.33;;;17.97;;
75429;SDS011;64127;51.488;5.462;2024-03-08T03:55:15;20.53;;;18.33;;
75429;SDS011;64127;51.488;5.462;2024-03-08T03:57:47;20.63;;;18.40;;
75429;SDS011;64127;51.488;5.462;2024-03-08T04:00:19;22.57;;;19.03;;
75429;SDS011;64127;51.488;5.462;2024-03-08T04:02:52;21.63;;;18.33;;
75429;SDS011;64127;51.488;5.462;2024-03-08T04:05:24;21.87;;;19.10;;
75429;SDS011;64127;51.488;5.462;2024-03-08T04:07:57;22.93;;;19.30;;
75429;SDS011;64127;51.488;5.462;2024-03-08T04:10:29;21.43;;;19.13;;
75429;SDS011;64127;51.488;5.462;2024-03-08T04:13:01;20.67;;;18.47;;
75429;SDS011;64127;51.488;5.462;2024-03-08T04:15:35;22.07;;;19.03;;
75429;SDS011;64127;51.488;5.462;2024-03-08T04:18:09;21.90;;;19.27;;
75429;SDS011;64127;51.488;5.462;2024-03-08T04:20:41;22.17;;;18.60;;
75429;SDS011;64127;51.488;5.462;2024-03-08T04:23:14;24.07;;;19.17;;
75429;SDS011;64127;51.488;5.462;2024-03-08T04:25:47;21.97;;;19.57;;
75429;SDS011;64127;51.488;5.462;2024-03-08T04:28:20;22.77;;;18.87;;
75429;SDS011;64127;51.488;5.462;2024-03-08T04:30:53;22.20;;;18.73;;
75429;SDS011;64127;51.488;5.462;2024-03-08T04:33:26;22.33;;;19.93;;
75429;SDS011;64127;51.488;5.462;2024-03-08T04:35:59;22.83;;;20.00;;
75429;SDS011;64127;51.488;5.462;2024-03-08T04:38:31;22.77;;;20.30;;
75429;SDS011;64127;51.488;5.462;2024-03-08T04:41:04;22.23;;;19.00;;
75429;SDS011;64127;51.488;5.462;2024-03-08T04:43:36;22.33;;;19.90;;
75429;SDS011;64127;51.488;5.462;2024-03-08T04:46:08;22.33;;;19.13;;
75429;SDS011;64127;51.488;5.462;2024-03-08T04:48:40;22.37;;;19.20;;
75429;SDS011;64127;51.488;5.462;2024-03-08T04:51:14;21.03;;;18.60;;
75429;SDS011;64127;51.488;5.462;2024-03-08T04:53:46;21.40;;;19.17;;
75429;SDS011;64127;51.488;5.462;2024-03-08T04:56:20;22.63;;;19.17;;
75429;SDS011;64127;51.488;5.462;2024-03-08T04:58:52;22.73;;;19.53;;
75429;SDS011;64127;51.488;5.462;2024-03-08T05:01:25;23.93;;;19.80;;
75429;SDS011;64127;51.488;5.462;2024-03-08T05:03:57;22.30;;;19.60;;
75429;SDS011;64127;51.488;5.462;2024-03-08T05:06:36;23.30;;;19.73;;
75429;SDS011;64127;51.488;5.462;2024-03-08T05:09:08;21.33;;;18.80;;
75429;SDS011;64127;51.488;5.462;2024-03-08T05:11:50;22.73;;;20.23;;
75429;SDS011;64127;51.488;5.462;2024-03-08T05:14:22;21.83;;;19.50;;
75429;SDS011;64127;51.488;5.462;2024-03-08T05:16:56;21.87;;;19.47;;
75429;SDS011;64127;51.488;5.462;2024-03-08T05:19:29;24.33;;;21.27;;
75429;SDS011;64127;51.488;5.462;2024-03-08T05:22:05;23.27;;;20.70;;
75429;SDS011;64127;51.488;5.462;2024-03-08T05:24:37;22.00;;;19.63;;
75429;SDS011;64127;51.488;5.462;2024-03-08T05:27:10;22.80;;;20.33;;
75429;SDS011;64127;51.488;5.462;2024-03-08T05:29:42;25.60;;;20.63;;
75429;SDS011;64127;51.488;5.462;2024-03-08T05:32:14;23.97;;;20.20;;
75429;SDS011;64127;51.488;5.462;2024-03-08T05:34:46;24.50;;;21.50;;
75429;SDS011;64127;51.488;5.462;2024-03-08T05:37:18;22.37;;;20.00;;
75429;SDS011;64127;51.488;5.462;2024-03-08T05:39:52;26.47;;;21.63;;
75429;SDS011;64127;51.488;5.462;2024-03-08T05:42:25;23.43;;;20.93;;
75429;SDS011;64127;51.488;5.462;2024-03-08T05:44:59;23.80;;;21.17;;
75429;SDS011;64127;51.488;5.462;2024-03-08T05:47:32;24.27;;;21.57;;
75429;SDS011;64127;51.488;5.462;2024-03-08T05:50:05;24.23;;;21.67;;
75429;SDS011;64127;51.488;5.462;2024-03-08T05:52:41;24.77;;;21.60;;
75429;SDS011;64127;51.488;5.462;2024-03-08T05:55:14;24.77;;;21.53;;
75429;SDS011;64127;51.488;5.462;2024-03-08T05:57:46;24.33;;;21.60;;
75429;SDS011;64127;51.488;5.462;2024-03-08T06:00:19;23.20;;;20.70;;
75429;SDS011;64127;51.488;5.462;2024-03-08T06:02:53;25.57;;;22.77;;
75429;SDS011;64127;51.488;5.462;2024-03-08T06:05:27;26.63;;;22.83;;
75429;SDS011;64127;51.488;5.462;2024-03-08T06:07:59;24.50;;;21.93;;
75429;SDS011;64127;51.488;5.462;2024-03-08T06:10:32;23.27;;;20.77;;
75429;SDS011;64127;51.488;5.462;2024-03-08T06:13:04;25.27;;;22.13;;
75429;SDS011;64127;51.488;5.462;2024-03-08T06:15:36;25.23;;;22.27;;
75429;SDS011;64127;51.488;5.462;2024-03-08T06:18:08;25.63;;;21.47;;
75429;SDS011;64127;51.488;5.462;2024-03-08T06:20:43;25.13;;;22.40;;
75429;SDS011;64127;51.488;5.462;2024-03-08T06:23:15;25.23;;;22.57;;
75429;SDS011;64127;51.488;5.462;2024-03-08T06:25:49;24.03;;;21.43;;
75429;SDS011;64127;51.488;5.462;2024-03-08T06:28:21;24.07;;;21.47;;
75429;SDS011;64127;51.488;5.462;2024-03-08T06:30:53;24.80;;;21.67;;
75429;SDS011;64127;51.488;5.462;2024-03-08T06:33:25;24.60;;;22.07;;
75429;SDS011;64127;51.488;5.462;2024-03-08T06:35:59;24.07;;;21.37;;
75429;SDS011;64127;51.488;5.462;2024-03-08T06:38:31;24.77;;;22.00;;
75429;SDS011;64127;51.488;5.462;2024-03-08T06:41:03;25.47;;;22.57;;
75429;SDS011;64127;51.488;5.462;2024-03-08T06:43:35;24.13;;;21.53;;
75429;SDS011;64127;51.488;5.462;2024-03-08T06:46:07;25.97;;;22.20;;
75429;SDS011;64127;51.488;5.462;2024-03-08T06:48:40;25.10;;;22.10;;
75429;SDS011;64127;51.488;5.462;2024-03-08T06:51:13;24.10;;;20.77;;
75429;SDS011;64127;51.488;5.462;2024-03-08T06:53:46;27.00;;;21.87;;
75429;SDS011;64127;51.488;5.462;2024-03-08T06:56:20;24.50;;;21.73;;
75429;SDS011;64127;51.488;5.462;2024-03-08T06:58:54;24.40;;;20.67;;
75429;SDS011;64127;51.488;5.462;2024-03-08T07:01:26;23.50;;;20.77;;
75429;SDS011;64127;51.488;5.462;2024-03-08T07:03:59;24.43;;;21.17;;
75429;SDS011;64127;51.488;5.462;2024-03-08T07:06:33;24.27;;;21.27;;
75429;SDS011;64127;51.488;5.462;2024-03-08T07:09:05;24.87;;;22.13;;
75429;SDS011;64127;51.488;5.462;2024-03-08T07:11:37;23.77;;;21.10;;
75429;SDS011;64127;51.488;5.462;2024-03-08T07:14:13;23.93;;;21.43;;
75429;SDS011;64127;51.488;5.462;2024-03-08T07:16:46;25.30;;;21.40;;
75429;SDS011;64127;51.488;5.462;2024-03-08T07:19:19;21.60;;;19.33;;
75429;SDS011;64127;51.488;5.462;2024-03-08T07:21:52;25.83;;;20.70;;
75429;SDS011;64127;51.488;5.462;2024-03-08T07:24:26;25.17;;;22.17;;
75429;SDS011;64127;51.488;5.462;2024-03-08T07:27:17;23.43;;;20.93;;
75429;SDS011;64127;51.488;5.462;2024-03-08T07:29:49;26.17;;;21.17;;
75429;SDS011;64127;51.488;5.462;2024-03-08T07:32:21;22.57;;;20.17;;
75429;SDS011;64127;51.488;5.462;2024-03-08T07:34:55;22.73;;;20.33;;
75429;SDS011;64127;51.488;5.462;2024-03-08T07:37:28;22.90;;;20.47;;
75429;SDS011;64127;51.488;5.462;2024-03-08T07:40:00;22.80;;;20.10;;
75429;SDS011;64127;51.488;5.462;2024-03-08T07:42:32;24.63;;;20.30;;
75429;SDS011;64127;51.488;5.462;2024-03-08T07:45:04;24.70;;;20.93;;
75429;SDS011;64127;51.488;5.462;2024-03-08T07:47:39;23.90;;;19.97;;
75429;SDS011;64127;51.488;5.462;2024-03-08T07:50:12;22.70;;;20.33;;
75429;SDS011;64127;51.488;5.462;2024-03-08T07:52:48;22.43;;;20.00;;
75429;SDS011;64127;51.488;5.462;2024-03-08T07:55:20;22.73;;;20.17;;
75429;SDS011;64127;51.488;5.462;2024-03-08T07:57:55;22.30;;;20.00;;
75429;SDS011;64127;51.488;5.462;2024-03-08T08:00:28;25.57;;;20.30;;
75429;SDS011;64127;51.488;5.462;2024-03-08T08:03:04;22.83;;;20.30;;
75429;SDS011;64127;51.488;5.462;2024-03-08T08:05:36;23.27;;;19.83;;
75429;SDS011;64127;51.488;5.462;2024-03-08T08:08:10;21.43;;;19.13;;
75429;SDS011;64127;51.488;5.462;2024-03-08T08:10:43;22.00;;;19.37;;
75429;SDS011;64127;51.488;5.462;2024-03-08T08:13:15;23.70;;;19.63;;
75429;SDS011;64127;51.488;5.462;2024-03-08T08:15:48;22.87;;;20.13;;
75429;SDS011;64127;51.488;5.462;2024-03-08T08:18:20;22.93;;;19.67;;
75429;SDS011;64127;51.488;5.462;2024-03-08T08:20:56;22.33;;;19.93;;
75429;SDS011;64127;51.488;5.462;2024-03-08T08:23:28;22.20;;;19.87;;
75429;SDS011;64127;51.488;5.462;2024-03-08T08:26:03;21.50;;;19.20;;
75429;SDS011;64127;51.488;5.462;2024-03-08T08:28:36;23.47;;;19.87;;
75429;SDS011;64127;51.488;5.462;2024-03-08T08:31:09;21.63;;;19.33;;
75429;SDS011;64127;51.488;5.462;2024-03-08T08:33:42;21.93;;;19.63;;
75429;SDS011;64127;51.488;5.462;2024-03-08T08:36:17;23.90;;;19.57;;
75429;SDS011;64127;51.488;5.462;2024-03-08T08:38:50;23.03;;;19.90;;
75429;SDS011;64127;51.488;5.462;2024-03-08T08:41:22;21.50;;;19.20;;
75429;SDS011;64127;51.488;5.462;2024-03-08T08:43:54;21.63;;;19.33;;
75429;SDS011;64127;51.488;5.462;2024-03-08T08:46:44;21.13;;;18.43;;
75429;SDS011;64127;51.488;5.462;2024-03-08T08:49:16;22.23;;;19.83;;
75429;SDS011;64127;51.488;5.462;2024-03-08T08:51:52;21.30;;;19.10;;
75429;SDS011;64127;51.488;5.462;2024-03-08T08:54:29;21.73;;;19.50;;
75429;SDS011;64127;51.488;5.462;2024-03-08T08:57:02;24.00;;;20.10;;
75429;SDS011;64127;51.488;5.462;2024-03-08T08:59:39;21.43;;;19.23;;
75429;SDS011;64127;51.488;5.462;2024-03-08T09:02:11;21.93;;;18.87;;
75429;SDS011;64127;51.488;5.462;2024-03-08T09:04:47;21.27;;;18.97;;
75429;SDS011;64127;51.488;5.462;2024-03-08T09:07:20;20.47;;;18.27;;
75429;SDS011;64127;51.488;5.462;2024-03-08T09:09:52;22.30;;;18.87;;
75429;SDS011;64127;51.488;5.462;2024-03-08T09:12:28;21.93;;;18.93;;
75429;SDS011;64127;51.488;5.462;2024-03-08T09:15:00;22.27;;;19.87;;
75429;SDS011;64127;51.488;5.462;2024-03-08T09:17:33;20.77;;;18.57;;
75429;SDS011;64127;51.488;5.462;2024-03-08T09:20:09;22.10;;;19.13;;
75429;SDS011;64127;51.488;5.462;2024-03-08T09:22:45;21.37;;;18.77;;
75429;SDS011;64127;51.488;5.462;2024-03-08T09:25:18;20.37;;;18.20;;
75429;SDS011;64127;51.488;5.462;2024-03-08T09:27:50;21.43;;;18.00;;
75429;SDS011;64127;51.488;5.462;2024-03-08T09:30:22;19.80;;;17.67;;
75429;SDS011;64127;51.488;5.462;2024-03-08T09:32:55;21.63;;;19.13;;
75429;SDS011;64127;51.488;5.462;2024-03-08T09:35:29;20.23;;;18.10;;
75429;SDS011;64127;51.488;5.462;2024-03-08T09:38:02;20.17;;;17.50;;
75429;SDS011;64127;51.488;5.462;2024-03-08T09:40:36;22.63;;;17.67;;
75429;SDS011;64127;51.488;5.462;2024-03-08T09:43:08;20.97;;;17.50;;
75429;SDS011;64127;51.488;5.462;2024-03-08T09:45:43;18.80;;;16.90;;
75429;SDS011;64127;51.488;5.462;2024-03-08T09:48:21;18.50;;;16.57;;
75429;SDS011;64127;51.488;5.462;2024-03-08T09:50:54;18.83;;;16.93;;
75429;SDS011;64127;51.488;5.462;2024-03-08T09:53:28;19.80;;;16.80;;
75429;SDS011;64127;51.488;5.462;2024-03-08T09:56:01;18.13;;;16.23;;
75429;SDS011;64127;51.488;5.462;2024-03-08T09:58:35;18.73;;;16.67;;
75429;SDS011;64127;51.488;5.462;2024-03-08T10:01:14;18.27;;;16.40;;
75429;SDS011;64127;51.488;5.462;2024-03-08T10:03:46;18.60;;;16.27;;
75429;SDS011;64127;51.488;5.462;2024-03-08T10:06:22;19.27;;;17.33;;
75429;SDS011;64127;51.488;5.462;2024-03-08T10:08:55;18.03;;;16.23;;
75429;SDS011;64127;51.488;5.462;2024-03-08T10:11:29;18.57;;;16.37;;
75429;SDS011;64127;51.488;5.462;2024-03-08T10:14:02;17.77;;;15.87;;
75429;SDS011;64127;51.488;5.462;2024-03-08T10:16:34;18.70;;;16.60;;
75429;SDS011;64127;51.488;5.462;2024-03-08T10:19:06;17.37;;;15.60;;
75429;SDS011;64127;51.488;5.462;2024-03-08T10:21:48;17.60;;;15.80;;
75429;SDS011;64127;51.488;5.462;2024-03-08T10:24:28;17.57;;;15.77;;
75429;SDS011;64127;51.488;5.462;2024-03-08T10:27:00;19.23;;;16.47;;
75429;SDS011;64127;51.488;5.462;2024-03-08T10:29:36;17.43;;;15.73;;
75429;SDS011;64127;51.488;5.462;2024-03-08T10:32:10;17.53;;;15.47;;
75429;SDS011;64127;51.488;5.462;2024-03-08T10:34:43;18.07;;;16.20;;
75429;SDS011;64127;51.488;5.462;2024-03-08T10:37:16;17.70;;;15.90;;
75429;SDS011;64127;51.488;5.462;2024-03-08T10:40:03;18.30;;;16.37;;
75429;SDS011;64127;51.488;5.462;2024-03-08T10:42:53;17.27;;;15.47;;
75429;SDS011;64127;51.488;5.462;2024-03-08T10:45:37;17.40;;;15.67;;
75429;SDS011;64127;51.488;5.462;2024-03-08T10:51:10;15.07;;;13.67;;
75429;SDS011;64127;51.488;5.462;2024-03-08T10:53:43;16.00;;;14.40;;
75429;SDS011;64127;51.488;5.462;2024-03-08T10:56:19;15.23;;;13.70;;
75429;SDS011;64127;51.488;5.462;2024-03-08T10:58:54;15.37;;;13.87;;
75429;SDS011;64127;51.488;5.462;2024-03-08T11:01:27;15.47;;;13.90;;
75429;SDS011;64127;51.488;5.462;2024-03-08T11:04:03;15.57;;;14.07;;
75429;SDS011;64127;51.488;5.462;2024-03-08T11:09:08;15.87;;;14.17;;
75429;SDS011;64127;51.488;5.462;2024-03-08T11:14:52;14.40;;;12.93;;
75429;SDS011;64127;51.488;5.462;2024-03-08T11:17:42;14.43;;;12.93;;
75429;SDS011;64127;51.488;5.462;2024-03-08T11:20:19;13.07;;;11.87;;
75429;SDS011;64127;51.488;5.462;2024-03-08T11:23:00;13.03;;;11.67;;
75429;SDS011;64127;51.488;5.462;2024-03-08T11:25:40;13.60;;;12.30;;
75429;SDS011;64127;51.488;5.462;2024-03-08T11:33:31;11.90;;;10.57;;
75429;SDS011;64127;51.488;5.462;2024-03-08T11:38:43;12.10;;;10.90;;
75429;SDS011;64127;51.488;5.462;2024-03-08T11:41:19;12.57;;;11.27;;
75429;SDS011;64127;51.488;5.462;2024-03-08T11:44:04;12.57;;;10.87;;
75429;SDS011;64127;51.488;5.462;2024-03-08T11:46:37;12.00;;;10.83;;
75429;SDS011;64127;51.488;5.462;2024-03-08T11:49:13;13.97;;;11.53;;
75429;SDS011;64127;51.488;5.462;2024-03-08T11:51:46;12.13;;;11.03;;
75429;SDS011;64127;51.488;5.462;2024-03-08T11:54:23;12.70;;;11.50;;
75429;SDS011;64127;51.488;5.462;2024-03-08T11:56:59;12.63;;;11.30;;
75429;SDS011;64127;51.488;5.462;2024-03-08T11:59:32;12.27;;;11.07;;
75429;SDS011;64127;51.488;5.462;2024-03-08T12:02:04;12.90;;;11.60;;
75429;SDS011;64127;51.488;5.462;2024-03-08T12:04:38;12.40;;;11.27;;
75429;SDS011;64127;51.488;5.462;2024-03-08T12:07:10;12.47;;;11.27;;
75429;SDS011;64127;51.488;5.462;2024-03-08T12:09:43;13.93;;;12.57;;
75429;SDS011;64127;51.488;5.462;2024-03-08T12:12:51;12.87;;;11.47;;
75429;SDS011;64127;51.488;5.462;2024-03-08T12:15:25;12.63;;;11.40;;
75429;SDS011;64127;51.488;5.462;2024-03-08T12:18:00;13.02;;;11.82;;
75429;SDS011;64127;51.488;5.462;2024-03-08T12:20:32;12.13;;;10.93;;
75429;SDS011;64127;51.488;5.462;2024-03-08T12:23:04;12.97;;;11.77;;
75429;SDS011;64127;51.488;5.462;2024-03-08T12:25:37;12.77;;;11.57;;
75429;SDS011;64127;51.488;5.462;2024-03-08T12:28:10;12.17;;;10.97;;
75429;SDS011;64127;51.488;5.462;2024-03-08T12:30:48;11.93;;;10.73;;
75429;SDS011;64127;51.488;5.462;2024-03-08T12:33:27;12.63;;;11.43;;
75429;SDS011;64127;51.488;5.462;2024-03-08T12:35:59;12.00;;;10.83;;
75429;SDS011;64127;51.488;5.462;2024-03-08T12:38:31;11.80;;;10.70;;
75429;SDS011;64127;51.488;5.462;2024-03-08T12:41:04;11.70;;;10.50;;
75429;SDS011;64127;51.488;5.462;2024-03-08T12:43:36;11.93;;;10.80;;
75429;SDS011;64127;51.488;5.462;2024-03-08T12:46:08;12.13;;;10.93;;
75429;SDS011;64127;51.488;5.462;2024-03-08T12:48:40;11.77;;;10.10;;
75429;SDS011;64127;51.488;5.462;2024-03-08T12:51:18;11.60;;;10.50;;
75429;SDS011;64127;51.488;5.462;2024-03-08T12:53:52;11.83;;;10.73;;
75429;SDS011;64127;51.488;5.462;2024-03-08T12:56:31;11.63;;;10.43;;
75429;SDS011;64127;51.488;5.462;2024-03-08T12:59:05;11.80;;;10.70;;
75429;SDS011;64127;51.488;5.462;2024-03-08T13:01:39;11.73;;;10.63;;
75429;SDS011;64127;51.488;5.462;2024-03-08T13:04:11;11.73;;;10.60;;
75429;SDS011;64127;51.488;5.462;2024-03-08T13:06:44;11.30;;;10.20;;
75429;SDS011;64127;51.488;5.462;2024-03-08T13:09:21;11.03;;;9.97;;
75429;SDS011;64127;51.488;5.462;2024-03-08T13:11:54;11.50;;;10.30;;
75429;SDS011;64127;51.488;5.462;2024-03-08T13:14:26;11.37;;;10.27;;
75429;SDS011;64127;51.488;5.462;2024-03-08T13:16:58;11.40;;;10.30;;
75429;SDS011;64127;51.488;5.462;2024-03-08T13:19:31;11.40;;;10.30;;
75429;SDS011;64127;51.488;5.462;2024-03-08T13:22:03;11.20;;;10.20;;
75429;SDS011;64127;51.488;5.462;2024-03-08T13:24:36;11.90;;;10.80;;
75429;SDS011;64127;51.488;5.462;2024-03-08T13:27:09;11.60;;;10.47;;
75429;SDS011;64127;51.488;5.462;2024-03-08T13:29:56;12.27;;;10.43;;
75429;SDS011;64127;51.488;5.462;2024-03-08T13:32:29;11.43;;;10.27;;
75429;SDS011;64127;51.488;5.462;2024-03-08T13:35:02;10.63;;;9.70;;
75429;SDS011;64127;51.488;5.462;2024-03-08T13:37:36;11.53;;;10.40;;
75429;SDS011;64127;51.488;5.462;2024-03-08T13:40:08;12.03;;;10.90;;
75429;SDS011;64127;51.488;5.462;2024-03-08T13:42:50;11.00;;;9.90;;
75429;SDS011;64127;51.488;5.462;2024-03-08T13:45:22;11.03;;;10.03;;
75429;SDS011;64127;51.488;5.462;2024-03-08T13:47:56;11.00;;;9.90;;
75429;SDS011;64127;51.488;5.462;2024-03-08T13:50:28;10.77;;;9.77;;
75429;SDS011;64127;51.488;5.462;2024-03-08T13:53:01;10.83;;;9.83;;
75429;SDS011;64127;51.488;5.462;2024-03-08T13:55:35;11.53;;;10.43;;
75429;SDS011;64127;51.488;5.462;2024-03-08T13:58:07;10.87;;;9.87;;
75429;SDS011;64127;51.488;5.462;2024-03-08T14:00:41;10.67;;;9.67;;
75429;SDS011;64127;51.488;5.462;2024-03-08T14:03:15;11.33;;;10.23;;
75429;SDS011;64127;51.488;5.462;2024-03-08T14:05:47;10.90;;;9.90;;
75429;SDS011;64127;51.488;5.462;2024-03-08T14:08:19;11.50;;;10.40;;
75429;SDS011;64127;51.488;5.462;2024-03-08T14:10:51;10.70;;;9.70;;
75429;SDS011;64127;51.488;5.462;2024-03-08T14:13:25;11.10;;;10.00;;
75429;SDS011;64127;51.488;5.462;2024-03-08T14:15:58;11.00;;;9.90;;
75429;SDS011;64127;51.488;5.462;2024-03-08T14:18:31;10.63;;;9.73;;
75429;SDS011;64127;51.488;5.462;2024-03-08T14:21:04;11.57;;;10.47;;
75429;SDS011;64127;51.488;5.462;2024-03-08T14:23:43;11.17;;;10.07;;
75429;SDS011;64127;51.488;5.462;2024-03-08T14:26:15;11.17;;;9.57;;
75429;SDS011;64127;51.488;5.462;2024-03-08T14:28:47;10.33;;;9.43;;
75429;SDS011;64127;51.488;5.462;2024-03-08T14:31:23;11.23;;;10.23;;
75429;SDS011;64127;51.488;5.462;2024-03-08T14:33:57;11.77;;;10.17;;
75429;SDS011;64127;51.488;5.462;2024-03-08T14:36:30;11.97;;;9.90;;
75429;SDS011;64127;51.488;5.462;2024-03-08T14:39:03;10.87;;;9.77;;
75429;SDS011;64127;51.488;5.462;2024-03-08T14:41:35;10.00;;;9.00;;
75429;SDS011;64127;51.488;5.462;2024-03-08T14:44:07;12.13;;;10.30;;
75429;SDS011;64127;51.488;5.462;2024-03-08T14:46:40;10.47;;;9.37;;
75429;SDS011;64127;51.488;5.462;2024-03-08T14:49:14;12.35;;;11.10;;
75429;SDS011;64127;51.488;5.462;2024-03-08T14:51:46;11.37;;;10.37;;
75429;SDS011;64127;51.488;5.462;2024-03-08T14:54:19;11.03;;;9.93;;
75429;SDS011;64127;51.488;5.462;2024-03-08T14:56:54;10.63;;;9.60;;
75429;SDS011;64127;51.488;5.462;2024-03-08T14:59:28;10.80;;;9.70;;
75429;SDS011;64127;51.488;5.462;2024-03-08T15:02:02;10.90;;;9.77;;
75429;SDS011;64127;51.488;5.462;2024-03-08T15:04:38;10.50;;;9.53;;
75429;SDS011;64127;51.488;5.462;2024-03-08T15:07:12;10.47;;;9.50;;
75429;SDS011;64127;51.488;5.462;2024-03-08T15:09:44;10.33;;;9.33;;
75429;SDS011;64127;51.488;5.462;2024-03-08T15:12:16;10.97;;;9.10;;
75429;SDS011;64127;51.488;5.462;2024-03-08T15:14:48;9.83;;;8.83;;
75429;SDS011;64127;51.488;5.462;2024-03-08T15:17:22;9.63;;;8.83;;
75429;SDS011;64127;51.488;5.462;2024-03-08T15:19:56;10.83;;;9.73;;